首页
METAR-TAF:

METAR-TAF

机场 :

阿尔及尔胡阿里·布迈丁机场

阿爾及爾, 阿尔及利亚

纬度: 36-43N, 经度: 003-15E, 海拔: 25米

当前天气观测

该预报发布于16分钟前的08:30 UTC
风速2节,风向多变
温度 15°C
湿度 36%
气压 1026 hPa
能见度10公里或以上
少量云层高于3300英尺
多云层高于20000英尺

METAR: DAAG 170830Z VRB02KT 9999 FEW033 BKN200 15/M00 Q1026

时间: 09:46 (08:46 UTC)

预报

该预报发布于3小时和46分钟前的05:00 UTC
预报有效从17日的 06点(UTC)到 18日的 06点(UTC)
风速6节,风向
能见度10公里或以上
1500米以下无云,无积雨云
几率 30% :
短暂存在
从 17日的 08点(UTC)到 17日的 12点(UTC)
风速15节,风向,有时为25节阵风

TAF: DAAG 170500Z 1706/1806 17006KT CAVOK PROB30 TEMPO 1708/1712 17015G25KT

超过4000个机场的气象观测和天气预报(METAR&TAF报告)。

可查询的气象台以黄色和红色小点在地图上表示。

将鼠标移到小点上方,可查看气象台名称。

然后点击查看天气观测和预报。

如需切换地图:点击带黑十字的绿色按钮放大地图;点击带横线的绿色按钮缩小地图;或者点击绿色箭头查看邻近地区的地图。


METAR-TAF: